Airfield :
LOGIN :

Register | Disclaimer

   EN    FR    IT 

 










Legend :    VFR   Marginal VFR   IFR   Intensive IFR   Very Intensive IFR
Visi :
Ceiling :
>= 8 km
>= 3000ft
5 to 8 km
1000 to 3000 ft
1500m to 5 km
500 to 1000 ft
800 to 1500m
200 to 500 ft
< 800m
< 200 ft
Symbols :   Thunderstorms  Fog  Heavy snow  Heavy precipitations  Wind > 20 kt
SIGMETs :     Misc.  Thunderstorms  Icing  Turbulence  Mountain Waves  Volcanic Ashes






- Airport Elevation : 1000 ft
- IATA code : PEV


LHPP - Pécs Pogany

CURRENT METAR :
  • 140715Z 36006KT 8000 SCT016 OVC083 04/04 Q0997

EXPIRED METARs :
  • 140645Z 34004KT 8000 SCT016 OVC083 04/04 Q0996
  • 140615Z 02006KT 8000 SCT016 OVC083 04/04 Q0996
  • 140545Z 03008KT 8000 -RA SCT016 OVC083 04/04 Q0995
  • 140515Z 03009KT 8000 -RA SCT015 OVC083 04/04 Q0995 RERA

TAF TAF LHPP
Valid from the 14 at 06:00 until the 14 at 15:00 UTC


140515Z 1406/1415 02010KT 7000 -RA OVC015
BECMG 1409/1411 27008KT CAVOK



MET'MAP, your aeronautical weather chart ! - Copyright ORBIFLY December 2007 - Disclaimer

ORBIFLY MET'MAP TEAM :

Programming & Development : Alexandra Zaïnal
Concept & original design : Baudouin d'Aumeries
Assistance for programming : Marc-Olivier Méhu
Technical & hardware support : Manuel Goepfert

Contact : metmap@orbifly.com




SOURCES & CREDITS :

   NOAA